createdAt,value
2018-10-17T00:00:19.220Z,0
2018-10-17T00:01:18.828Z,0
2018-10-17T00:02:18.956Z,0
2018-10-17T00:03:18.707Z,0
2018-10-17T00:04:18.933Z,0
2018-10-17T00:05:19.163Z,0
2018-10-17T00:06:19.179Z,0
2018-10-17T00:07:19.392Z,0
2018-10-17T00:08:18.924Z,0
2018-10-17T00:09:18.656Z,0
2018-10-17T00:10:19.191Z,0
2018-10-17T00:11:19.127Z,0
2018-10-17T00:12:19.164Z,0
2018-10-17T00:13:19.085Z,0
2018-10-17T00:14:19.173Z,0
2018-10-17T00:15:18.915Z,0
2018-10-17T00:16:18.899Z,0
2018-10-17T00:17:18.981Z,0
2018-10-17T00:18:18.641Z,0
2018-10-17T00:19:19.479Z,0
2018-10-17T00:20:19.136Z,0
2018-10-17T00:21:18.618Z,0
2018-10-17T00:22:18.613Z,0
2018-10-17T00:23:19.148Z,0
2018-10-17T00:24:18.888Z,0
2018-10-17T00:25:18.752Z,0
2018-10-17T00:26:18.873Z,0
2018-10-17T00:27:18.599Z,0
2018-10-17T00:28:18.870Z,0
2018-10-17T00:29:19.225Z,0
2018-10-17T00:30:18.848Z,0
2018-10-17T00:31:19.158Z,0
2018-10-17T00:32:18.840Z,0
2018-10-17T00:33:19.353Z,0
2018-10-17T00:34:18.831Z,0
2018-10-17T00:35:19.637Z,0
2018-10-17T00:36:18.588Z,0
2018-10-17T00:37:19.164Z,0
2018-10-17T00:38:18.575Z,0
2018-10-17T00:39:19.093Z,0
2018-10-17T00:40:19.197Z,0
2018-10-17T00:41:19.753Z,0
2018-10-17T00:42:18.562Z,0
2018-10-17T00:43:19.132Z,0
2018-10-17T00:44:19.088Z,0
2018-10-17T00:45:18.548Z,0
2018-10-17T00:46:18.557Z,0
2018-10-17T00:47:19.089Z,0
2018-10-17T00:48:18.785Z,0
2018-10-17T00:49:19.095Z,0
2018-10-17T00:50:19.052Z,0
2018-10-17T00:51:18.790Z,0
2018-10-17T00:52:19.042Z,0
2018-10-17T00:53:19.159Z,0
2018-10-17T00:54:18.790Z,0
2018-10-17T00:55:19.535Z,0
2018-10-17T00:56:19.053Z,0
2018-10-17T00:57:18.760Z,0
2018-10-17T00:58:19.048Z,0
2018-10-17T00:59:19.378Z,0
2018-10-17T01:00:19.026Z,0
2018-10-17T01:01:19.491Z,0
2018-10-17T01:02:19.084Z,0
2018-10-17T01:03:22.794Z,0
2018-10-17T01:04:18.508Z,0
2018-10-17T01:05:19.107Z,0
2018-10-17T01:06:18.764Z,0
2018-10-17T01:07:18.952Z,0
2018-10-17T01:08:18.477Z,0
2018-10-17T01:09:18.712Z,0
2018-10-17T01:10:18.995Z,0
2018-10-17T01:11:18.839Z,0
2018-10-17T01:12:18.720Z,0
2018-10-17T01:13:19.177Z,0
2018-10-17T01:14:18.715Z,0
2018-10-17T01:15:18.698Z,0
2018-10-17T01:16:18.772Z,0
2018-10-17T01:17:19.118Z,0
2018-10-17T01:18:18.689Z,0
2018-10-17T01:19:18.608Z,0
2018-10-17T01:20:18.680Z,0
2018-10-17T01:21:18.194Z,0
2018-10-17T01:22:18.679Z,0
2018-10-17T01:23:18.950Z,0
2018-10-17T01:24:18.661Z,0
2018-10-17T01:25:18.567Z,0
2018-10-17T01:26:18.654Z,0
2018-10-17T01:27:18.978Z,0
2018-10-17T01:28:18.667Z,0
2018-10-17T01:29:19.018Z,0
2018-10-17T01:30:18.895Z,0
2018-10-17T01:31:19.416Z,0
2018-10-17T01:32:18.908Z,0
2018-10-17T01:33:18.891Z,0
2018-10-17T01:34:21.301Z,0
2018-10-17T01:35:19.257Z,0
2018-10-17T01:36:18.414Z,0
2018-10-17T01:37:18.261Z,0
2018-10-17T01:38:18.370Z,0
2018-10-17T01:39:18.881Z,0
2018-10-17T01:40:18.917Z,0
2018-10-17T01:41:18.732Z,0
2018-10-17T01:42:18.863Z,0
2018-10-17T01:43:19.078Z,0
2018-10-17T01:44:18.884Z,0
2018-10-17T01:45:18.866Z,0
2018-10-17T01:46:18.622Z,0
2018-10-17T01:47:18.888Z,0
2018-10-17T01:48:18.623Z,0
2018-10-17T01:49:18.412Z,0
2018-10-17T01:50:18.594Z,0
2018-10-17T01:51:18.322Z,0
2018-10-17T01:52:18.563Z,0
2018-10-17T01:53:18.902Z,0
2018-10-17T01:54:18.853Z,0
2018-10-17T01:55:18.657Z,0
2018-10-17T01:56:18.550Z,0
2018-10-17T01:57:18.284Z,0
2018-10-17T01:58:18.804Z,0
2018-10-17T01:59:18.998Z,0
2018-10-17T02:00:18.292Z,0
2018-10-17T02:01:18.760Z,0
2018-10-17T02:02:18.780Z,0
2018-10-17T02:03:18.792Z,0
2018-10-17T02:04:19.018Z,0
2018-10-17T02:05:18.798Z,0
2018-10-17T02:06:18.512Z,0
2018-10-17T02:07:19.368Z,0
2018-10-17T02:08:18.235Z,0
2018-10-17T02:09:18.508Z,0
2018-10-17T02:10:18.250Z,0
2018-10-17T02:11:18.796Z,0
2018-10-17T02:12:18.233Z,0
2018-10-17T02:13:18.772Z,0
2018-10-17T02:14:18.474Z,0
2018-10-17T02:15:18.461Z,0
2018-10-17T02:16:18.202Z,0
2018-10-17T02:17:17.950Z,0
2018-10-17T02:18:18.468Z,0
2018-10-17T02:19:19.236Z,0
2018-10-17T02:20:18.706Z,0
2018-10-17T02:21:18.450Z,0
2018-10-17T02:22:18.186Z,0
2018-10-17T02:23:19.116Z,0
2018-10-17T02:24:18.691Z,0
2018-10-17T02:25:18.660Z,0
2018-10-17T02:26:18.150Z,0
2018-10-17T02:27:18.408Z,0
2018-10-17T02:28:18.673Z,0
2018-10-17T02:29:18.583Z,0
2018-10-17T02:30:18.146Z,0
2018-10-17T02:31:18.845Z,0
2018-10-17T02:32:18.653Z,0
2018-10-17T02:33:18.384Z,0
2018-10-17T02:34:19.332Z,0
2018-10-17T02:35:18.722Z,0
2018-10-17T02:36:18.393Z,0
2018-10-17T02:37:19.131Z,0
2018-10-17T02:38:18.609Z,0
2018-10-17T02:39:18.710Z,0
2018-10-17T02:40:18.339Z,0
2018-10-17T02:41:19.274Z,0
2018-10-17T02:42:18.096Z,0
2018-10-17T02:43:19.124Z,0
2018-10-17T02:44:18.331Z,0
2018-10-17T02:45:18.059Z,0
2018-10-17T02:46:18.589Z,0
2018-10-17T02:47:18.985Z,0
2018-10-17T02:48:18.302Z,0
2018-10-17T02:49:18.723Z,0
2018-10-17T02:50:18.051Z,0
2018-10-17T02:51:18.306Z,0
2018-10-17T02:52:18.307Z,0
2018-10-17T02:53:19.132Z,0
2018-10-17T02:54:18.538Z,0
2018-10-17T02:55:18.597Z,0
2018-10-17T02:56:18.307Z,0
2018-10-17T02:57:18.272Z,0
2018-10-17T02:58:18.024Z,0
2018-10-17T02:59:19.080Z,0
2018-10-17T03:00:18.040Z,0
2018-10-17T03:01:18.306Z,0
2018-10-17T03:02:18.507Z,0
2018-10-17T03:03:18.244Z,0
2018-10-17T03:04:18.238Z,0
2018-10-17T03:05:18.651Z,0
2018-10-17T03:06:18.236Z,0
2018-10-17T03:07:19.184Z,0
2018-10-17T03:08:17.955Z,0
2018-10-17T03:09:18.217Z,0
2018-10-17T03:10:18.466Z,0
2018-10-17T03:11:18.726Z,0
2018-10-17T03:12:18.218Z,0
2018-10-17T03:13:18.992Z,0
2018-10-17T03:14:17.930Z,0
2018-10-17T03:15:18.205Z,0
2018-10-17T03:16:18.216Z,0
2018-10-17T03:17:19.091Z,0
2018-10-17T03:18:18.165Z,0
2018-10-17T03:19:18.997Z,0
2018-10-17T03:20:17.990Z,0
2018-10-17T03:21:18.415Z,0
2018-10-17T03:22:18.411Z,0
2018-10-17T03:23:18.847Z,0
2018-10-17T03:24:18.417Z,0
2018-10-17T03:25:18.593Z,0
2018-10-17T03:26:18.144Z,0
2018-10-17T03:27:18.408Z,0
2018-10-17T03:28:18.716Z,0
2018-10-17T03:29:18.840Z,0
2018-10-17T03:30:18.380Z,0
2018-10-17T03:31:19.039Z,0
2018-10-17T03:32:18.117Z,0
2018-10-17T03:33:18.118Z,0
2018-10-17T03:34:18.120Z,0
2018-10-17T03:35:18.123Z,0
2018-10-17T03:36:18.379Z,0
2018-10-17T03:37:18.921Z,0
2018-10-17T03:38:18.368Z,0
2018-10-17T03:39:17.836Z,0
2018-10-17T03:40:18.352Z,0
2018-10-17T03:41:18.892Z,0
2018-10-17T03:42:18.087Z,0
2018-10-17T03:43:18.649Z,0
2018-10-17T03:44:17.817Z,0
2018-10-17T03:45:18.084Z,0
2018-10-17T03:46:18.060Z,0
2018-10-17T03:47:19.097Z,0
2018-10-17T03:48:18.071Z,0
2018-10-17T03:49:18.590Z,0
2018-10-17T03:50:18.041Z,0
2018-10-17T03:51:18.029Z,0
2018-10-17T03:52:17.791Z,0
2018-10-17T03:53:18.992Z,0
2018-10-17T03:54:17.783Z,0
2018-10-17T03:55:18.902Z,0
2018-10-17T03:56:18.280Z,0
2018-10-17T03:57:18.004Z,0
2018-10-17T03:58:17.487Z,0
2018-10-17T03:59:18.940Z,0
2018-10-17T04:00:17.989Z,0
2018-10-17T04:01:18.450Z,0
2018-10-17T04:02:17.985Z,0
2018-10-17T04:03:18.414Z,0
2018-10-17T04:04:17.983Z,0
2018-10-17T04:05:18.864Z,0
2018-10-17T04:06:18.262Z,0
2018-10-17T04:07:18.804Z,0
2018-10-17T04:08:17.988Z,0
2018-10-17T04:09:17.691Z,0
2018-10-17T04:10:17.951Z,0
2018-10-17T04:11:18.231Z,0
2018-10-17T04:12:18.183Z,0
2018-10-17T04:13:18.310Z,0
2018-10-17T04:14:17.664Z,0
2018-10-17T04:15:18.189Z,0
2018-10-17T04:16:17.922Z,0
2018-10-17T04:17:18.723Z,0
2018-10-17T04:18:17.920Z,0
2018-10-17T04:19:18.315Z,0
2018-10-17T04:20:17.917Z,0
2018-10-17T04:21:17.937Z,0
2018-10-17T04:22:17.628Z,0
2018-10-17T04:23:18.315Z,0
2018-10-17T04:24:17.922Z,0
2018-10-17T04:25:18.864Z,0
2018-10-17T04:26:17.619Z,0
2018-10-17T04:27:17.875Z,0
2018-10-17T04:28:17.856Z,0
2018-10-17T04:29:18.208Z,0
2018-10-17T04:30:18.107Z,0
2018-10-17T04:31:18.224Z,0
2018-10-17T04:32:17.589Z,0
2018-10-17T04:33:17.853Z,0
2018-10-17T04:34:18.093Z,0
2018-10-17T04:35:18.706Z,0
2018-10-17T04:36:18.635Z,0
2018-10-17T04:37:18.575Z,0
2018-10-17T04:38:17.819Z,0
2018-10-17T04:39:17.565Z,0
2018-10-17T04:40:17.821Z,0
2018-10-17T04:41:18.582Z,0
2018-10-17T04:42:17.546Z,0
2018-10-17T04:43:18.548Z,0
2018-10-17T04:44:18.048Z,0
2018-10-17T04:45:17.534Z,0
2018-10-17T04:46:17.787Z,0
2018-10-17T04:47:18.557Z,0
2018-10-17T04:48:17.534Z,0
2018-10-17T04:49:18.611Z,0
2018-10-17T04:50:18.092Z,0
2018-10-17T04:51:18.019Z,0
2018-10-17T04:52:17.759Z,0
2018-10-17T04:53:18.673Z,0
2018-10-17T04:54:17.742Z,0
2018-10-17T04:55:18.567Z,0
2018-10-17T04:56:17.744Z,0
2018-10-17T04:57:18.041Z,0
2018-10-17T04:58:18.073Z,0
2018-10-17T04:59:18.058Z,0
2018-10-17T05:00:17.730Z,0
2018-10-17T05:01:17.981Z,0
2018-10-17T05:02:17.958Z,0
2018-10-17T05:03:17.711Z,0
2018-10-17T05:04:17.695Z,0
2018-10-17T05:05:18.504Z,0
2018-10-17T05:06:17.696Z,0
2018-10-17T05:07:18.363Z,0
2018-10-17T05:08:17.989Z,0
2018-10-17T05:09:17.692Z,0
2018-10-17T05:10:17.736Z,0
2018-10-17T05:11:18.438Z,0
2018-10-17T05:12:17.958Z,0
2018-10-17T05:13:17.965Z,0
2018-10-17T05:14:17.917Z,0
2018-10-17T05:15:18.347Z,4
2018-10-17T05:16:17.132Z,4
2018-10-17T05:17:18.015Z,0
2018-10-17T05:18:17.910Z,4
2018-10-17T05:19:18.334Z,4
2018-10-17T05:20:18.130Z,4
2018-10-17T05:21:17.654Z,4
2018-10-17T05:22:17.894Z,4
2018-10-17T05:23:18.062Z,4
2018-10-17T05:24:17.356Z,8
2018-10-17T05:25:18.480Z,12
2018-10-17T05:26:17.607Z,12
2018-10-17T05:27:17.415Z,16
2018-10-17T05:28:17.848Z,20
2018-10-17T05:29:18.424Z,20
2018-10-17T05:30:17.886Z,24
2018-10-17T05:31:17.969Z,32
2018-10-17T05:32:17.831Z,36
2018-10-17T05:33:17.567Z,44
2018-10-17T05:34:17.564Z,52
2018-10-17T05:35:17.983Z,60
2018-10-17T05:36:17.812Z,72
2018-10-17T05:37:18.230Z,84
2018-10-17T05:38:17.668Z,92
2018-10-17T05:39:17.280Z,108
2018-10-17T05:40:17.277Z,120
2018-10-17T05:41:17.787Z,136
2018-10-17T05:42:17.502Z,156
2018-10-17T05:43:18.289Z,172
2018-10-17T05:44:17.896Z,196
2018-10-17T05:45:17.248Z,216
2018-10-17T05:46:17.500Z,240
2018-10-17T05:47:18.363Z,264
2018-10-17T05:48:17.481Z,288
2018-10-17T05:49:18.289Z,320
2018-10-17T05:50:17.491Z,344
2018-10-17T05:51:17.006Z,376
2018-10-17T05:52:17.213Z,408
2018-10-17T05:53:18.028Z,440
2018-10-17T05:54:17.232Z,476
2018-10-17T05:55:18.377Z,512
2018-10-17T05:56:17.292Z,548
2018-10-17T05:57:17.716Z,584
2018-10-17T05:58:17.493Z,620
2018-10-17T05:59:17.677Z,660
2018-10-17T06:00:17.227Z,700
2018-10-17T06:01:18.353Z,740
2018-10-17T06:02:17.952Z,776
2018-10-17T06:03:17.408Z,820
2018-10-17T06:04:17.429Z,860
2018-10-17T06:05:18.102Z,908
2018-10-17T06:06:17.406Z,948
2018-10-17T06:07:17.724Z,992
2018-10-17T06:08:17.393Z,1036
2018-10-17T06:09:17.121Z,1080
2018-10-17T06:10:17.903Z,1128
2018-10-17T06:11:18.130Z,1168
2018-10-17T06:12:17.154Z,1216
2018-10-17T06:13:17.974Z,1264
2018-10-17T06:14:17.360Z,1308
2018-10-17T06:15:17.355Z,1352
2018-10-17T06:16:17.359Z,1400
2018-10-17T06:17:17.601Z,1444
2018-10-17T06:18:17.113Z,1488
2018-10-17T06:19:17.709Z,1536
2018-10-17T06:20:17.345Z,1584
2018-10-17T06:21:17.065Z,1624
2018-10-17T06:22:17.590Z,1672
2018-10-17T06:23:17.752Z,1716
2018-10-17T06:24:17.562Z,1760
2018-10-17T06:25:18.007Z,1804
2018-10-17T06:26:17.597Z,1844
2018-10-17T06:27:17.553Z,1888
2018-10-17T06:28:17.242Z,1928
2018-10-17T06:29:18.057Z,1968
2018-10-17T06:30:17.281Z,2012
2018-10-17T06:31:18.183Z,2056
2018-10-17T06:32:17.277Z,2096
2018-10-17T06:33:17.272Z,2140
2018-10-17T06:34:18.162Z,2184
2018-10-17T06:35:17.823Z,2224
2018-10-17T06:36:17.273Z,2264
2018-10-17T06:37:17.578Z,2304
2018-10-17T06:38:16.772Z,2344
2018-10-17T06:39:17.517Z,2376
2018-10-17T06:40:17.248Z,2408
2018-10-17T06:41:18.010Z,2444
2018-10-17T06:42:16.959Z,2476
2018-10-17T06:43:17.697Z,2512
2018-10-17T06:44:17.409Z,2544
2018-10-17T06:45:17.198Z,2580
2018-10-17T06:46:17.456Z,2612
2018-10-17T06:47:18.028Z,2648
2018-10-17T06:48:17.457Z,2684
2018-10-17T06:49:17.608Z,2720
2018-10-17T06:50:17.448Z,2756
2018-10-17T06:51:17.883Z,2792
2018-10-17T06:52:17.444Z,2828
2018-10-17T06:53:17.147Z,2864
2018-10-17T06:54:17.318Z,2900
2018-10-17T06:55:17.526Z,2932
2018-10-17T06:56:17.163Z,2976
2018-10-17T06:57:17.160Z,3024
2018-10-17T06:58:16.896Z,3064
2018-10-17T06:59:17.536Z,3108
2018-10-17T07:00:17.217Z,3148
2018-10-17T07:01:17.572Z,3192
2018-10-17T07:02:16.953Z,3236
2018-10-17T07:03:17.115Z,3348
2018-10-17T07:04:17.388Z,3628
2018-10-17T07:05:17.784Z,4004
2018-10-17T07:06:17.365Z,4324
2018-10-17T07:07:18.057Z,4576
2018-10-17T07:08:17.118Z,4732
2018-10-17T07:09:17.395Z,4824
2018-10-17T07:10:17.115Z,4892
2018-10-17T07:11:17.672Z,4944
2018-10-17T07:12:17.335Z,4992
2018-10-17T07:13:17.763Z,5028
2018-10-17T07:14:17.334Z,5060
2018-10-17T07:15:17.572Z,5100
2018-10-17T07:16:17.105Z,5148
2018-10-17T07:17:17.761Z,5176
2018-10-17T07:18:17.327Z,5192
2018-10-17T07:19:17.964Z,5216
2018-10-17T07:20:17.354Z,5240
2018-10-17T07:21:17.075Z,5268
2018-10-17T07:22:17.094Z,5296
2018-10-17T07:23:17.567Z,5312
2018-10-17T07:24:17.083Z,5332
2018-10-17T07:25:17.772Z,5352
2018-10-17T07:26:17.093Z,5368
2018-10-17T07:27:17.112Z,5404
2018-10-17T07:28:17.117Z,5436
2018-10-17T07:29:17.818Z,5488
2018-10-17T07:30:17.135Z,5508
2018-10-17T07:31:18.852Z,5540
2018-10-17T07:32:17.362Z,5568
2018-10-17T07:33:17.092Z,5584
2018-10-17T07:34:17.353Z,5596
2018-10-17T07:35:17.426Z,5616
2018-10-17T07:36:17.169Z,5616
2018-10-17T07:37:16.845Z,5612
2018-10-17T07:38:17.101Z,5616
2018-10-17T07:39:17.373Z,5612
2018-10-17T07:40:17.228Z,5624
2018-10-17T07:41:17.095Z,5636
2018-10-17T07:42:17.932Z,5644
2018-10-17T07:43:17.108Z,5648
2018-10-17T07:44:17.108Z,5652
2018-10-17T07:45:16.986Z,5660
2018-10-17T07:46:16.868Z,5664
2018-10-17T07:47:17.399Z,5664
2018-10-17T07:48:17.822Z,5664
2018-10-17T07:49:16.861Z,5672
2018-10-17T07:50:17.263Z,5684
2018-10-17T07:51:17.116Z,5688
2018-10-17T07:52:16.864Z,5696
2018-10-17T07:53:17.347Z,5732
2018-10-17T07:54:18.012Z,5744
2018-10-17T07:55:17.153Z,5756
2018-10-17T07:56:17.387Z,5784
2018-10-17T07:57:17.434Z,5804
2018-10-17T07:58:16.647Z,5828
2018-10-17T07:59:16.893Z,5844
2018-10-17T08:00:17.936Z,5876
2018-10-17T08:01:17.148Z,5904
2018-10-17T08:02:17.133Z,5904
2018-10-17T08:03:17.175Z,5872
2018-10-17T08:04:17.156Z,5892
2018-10-17T08:05:17.019Z,5908
2018-10-17T08:06:17.210Z,5960
2018-10-17T08:07:16.914Z,6012
2018-10-17T08:08:17.177Z,6028
2018-10-17T08:09:17.247Z,6044
2018-10-17T08:10:17.313Z,6040
2018-10-17T08:11:16.924Z,6036
2018-10-17T08:12:17.932Z,6048
2018-10-17T08:13:16.691Z,6068
2018-10-17T08:14:17.651Z,6088
2018-10-17T08:15:17.334Z,6112
2018-10-17T08:16:16.922Z,6132
2018-10-17T08:17:17.181Z,6128
2018-10-17T08:18:17.327Z,6180
2018-10-17T08:19:17.195Z,6196
2018-10-17T08:20:16.814Z,6220
2018-10-17T08:21:17.340Z,6240
2018-10-17T08:22:17.507Z,6276
2018-10-17T08:23:17.182Z,6312
2018-10-17T08:24:18.063Z,6320
2018-10-17T08:25:17.561Z,6348
2018-10-17T08:26:17.453Z,6376
2018-10-17T08:27:17.513Z,6388
2018-10-17T08:28:16.974Z,6408
2018-10-17T08:29:17.450Z,6428
2018-10-17T08:30:17.571Z,6444
2018-10-17T08:31:17.442Z,6456
2018-10-17T08:32:17.443Z,6472
2018-10-17T08:33:17.188Z,6492
2018-10-17T08:34:17.434Z,6500
2018-10-17T08:35:17.678Z,6512
2018-10-17T08:36:18.600Z,6524
2018-10-17T08:37:17.083Z,6528
2018-10-17T08:38:17.201Z,6532
2018-10-17T08:39:17.436Z,6536
2018-10-17T08:40:16.971Z,6544
2018-10-17T08:41:18.032Z,6540
2018-10-17T08:42:17.175Z,6536
2018-10-17T08:43:17.178Z,6540
2018-10-17T08:44:18.113Z,6544
2018-10-17T08:45:17.461Z,6544
2018-10-17T08:46:17.436Z,6544
2018-10-17T08:47:17.430Z,6544
2018-10-17T08:48:17.192Z,6552
2018-10-17T08:49:16.915Z,6544
2018-10-17T08:50:17.930Z,6544
2018-10-17T08:51:17.302Z,6548
2018-10-17T08:52:17.433Z,6544
2018-10-17T08:53:17.421Z,6536
2018-10-17T08:54:16.921Z,6564
2018-10-17T08:55:17.418Z,6536
2018-10-17T08:56:17.546Z,6536
2018-10-17T08:57:17.163Z,6528
2018-10-17T08:58:17.165Z,6524
2018-10-17T08:59:17.434Z,6536
2018-10-17T09:00:17.621Z,6528
2018-10-17T09:01:17.217Z,6528
2018-10-17T09:02:17.934Z,6528
2018-10-17T09:03:17.414Z,6520
2018-10-17T09:04:16.908Z,6532
2018-10-17T09:05:17.467Z,6524
2018-10-17T09:06:17.985Z,6520
2018-10-17T09:07:16.916Z,6508
2018-10-17T09:08:17.339Z,6520
2018-10-17T09:09:16.952Z,6524
2018-10-17T09:10:17.156Z,6524
2018-10-17T09:11:17.423Z,6524
2018-10-17T09:12:17.956Z,6516
2018-10-17T09:13:17.249Z,6508
2018-10-17T09:14:17.545Z,6512
2018-10-17T09:15:17.615Z,6512
2018-10-17T09:16:18.110Z,6504
2018-10-17T09:17:17.175Z,6512
2018-10-17T09:18:17.957Z,6512
2018-10-17T09:19:17.709Z,6504
2018-10-17T09:20:19.856Z,6500
2018-10-17T09:21:18.846Z,6500
2018-10-17T09:22:19.852Z,6480
2018-10-17T09:23:16.892Z,6480
2018-10-17T09:24:17.954Z,6468
2018-10-17T09:25:17.196Z,6456
2018-10-17T09:26:16.897Z,6448
2018-10-17T09:27:17.151Z,6452
2018-10-17T09:28:17.628Z,6432
2018-10-17T09:29:16.905Z,6404
2018-10-17T09:30:17.657Z,6388
2018-10-17T09:31:17.156Z,6392
2018-10-17T09:32:17.957Z,6392
2018-10-17T09:33:17.142Z,6380
2018-10-17T09:34:17.592Z,6360
2018-10-17T09:35:17.193Z,6360
2018-10-17T09:36:17.544Z,6348
2018-10-17T09:37:17.426Z,6352
2018-10-17T09:38:16.936Z,6344
2018-10-17T09:39:16.899Z,6336
2018-10-17T09:40:18.043Z,6336
2018-10-17T09:41:17.130Z,6328
2018-10-17T09:42:17.101Z,6320
2018-10-17T09:43:17.306Z,6308
2018-10-17T09:44:17.163Z,6288
2018-10-17T09:45:17.193Z,6284
2018-10-17T09:46:18.056Z,6264
2018-10-17T09:47:17.126Z,6256
2018-10-17T09:48:17.528Z,6264
2018-10-17T09:49:16.897Z,6256
2018-10-17T09:50:17.233Z,6252
2018-10-17T09:51:17.148Z,6264
2018-10-17T09:52:17.316Z,6256
2018-10-17T09:53:17.251Z,6256
2018-10-17T09:54:17.562Z,6244
2018-10-17T09:55:17.484Z,6236
2018-10-17T09:56:16.900Z,6240
2018-10-17T09:57:16.679Z,6236
2018-10-17T09:58:17.549Z,6236
2018-10-17T09:59:17.140Z,6232
2018-10-17T10:00:18.016Z,6232
2018-10-17T10:01:17.166Z,6204
2018-10-17T10:02:17.854Z,6220
2018-10-17T10:03:17.157Z,6220
2018-10-17T10:04:17.895Z,6212
2018-10-17T10:05:17.678Z,6200
2018-10-17T10:06:17.562Z,6192
2018-10-17T10:07:17.159Z,6176
2018-10-17T10:08:17.439Z,6168
2018-10-17T10:09:17.415Z,6156
2018-10-17T10:10:18.002Z,6136
2018-10-17T10:11:17.295Z,6112
2018-10-17T10:12:17.736Z,6100
2018-10-17T10:13:16.914Z,6080
2018-10-17T10:14:17.164Z,6056
2018-10-17T10:15:16.934Z,6036
2018-10-17T10:16:17.446Z,6016
2018-10-17T10:17:17.573Z,5992
2018-10-17T10:18:17.394Z,5972
2018-10-17T10:19:17.196Z,5952
2018-10-17T10:20:17.484Z,5940
2018-10-17T10:21:16.922Z,5924
2018-10-17T10:22:17.592Z,5912
2018-10-17T10:23:17.959Z,5904
2018-10-17T10:24:17.465Z,5896
2018-10-17T10:25:17.812Z,5888
2018-10-17T10:26:17.539Z,5876
2018-10-17T10:27:17.465Z,5864
2018-10-17T10:28:17.665Z,5852
2018-10-17T10:29:17.436Z,5852
2018-10-17T10:30:17.571Z,5784
2018-10-17T10:31:17.438Z,5836
2018-10-17T10:32:17.407Z,5828
2018-10-17T10:33:17.412Z,5824
2018-10-17T10:34:17.612Z,5812
2018-10-17T10:35:17.532Z,5804
2018-10-17T10:36:18.059Z,5788
2018-10-17T10:37:17.176Z,5776
2018-10-17T10:38:17.178Z,5760
2018-10-17T10:39:17.160Z,5748
2018-10-17T10:40:17.965Z,5744
2018-10-17T10:41:17.461Z,5740
2018-10-17T10:42:17.245Z,5736
2018-10-17T10:43:17.470Z,5728
2018-10-17T10:44:18.217Z,5728
2018-10-17T10:45:17.617Z,5732
2018-10-17T10:46:17.225Z,5744
2018-10-17T10:47:17.476Z,5756
2018-10-17T10:48:17.696Z,5760
2018-10-17T10:49:17.911Z,5764
2018-10-17T10:50:17.776Z,5764
2018-10-17T10:51:18.047Z,5776
2018-10-17T10:52:17.203Z,5792
2018-10-17T10:53:17.205Z,5808
2018-10-17T10:54:17.592Z,5832
2018-10-17T10:55:17.231Z,5840
2018-10-17T10:56:17.672Z,5852
2018-10-17T10:57:17.668Z,5860
2018-10-17T10:58:17.646Z,5856
2018-10-17T10:59:17.718Z,5852
2018-10-17T11:00:17.543Z,5856
2018-10-17T11:01:17.218Z,5848
2018-10-17T11:02:17.628Z,5852
2018-10-17T11:03:17.987Z,5852
2018-10-17T11:04:17.217Z,5836
2018-10-17T11:05:17.181Z,5820
2018-10-17T11:06:17.486Z,5808
2018-10-17T11:07:17.229Z,5792
2018-10-17T11:08:17.730Z,5772
2018-10-17T11:09:17.495Z,5756
2018-10-17T11:10:16.980Z,5740
2018-10-17T11:11:18.106Z,5720
2018-10-17T11:12:17.565Z,5712
2018-10-17T11:13:17.000Z,5696
2018-10-17T11:14:18.179Z,5688
2018-10-17T11:15:17.028Z,5668
2018-10-17T11:16:17.241Z,5644
2018-10-17T11:17:17.411Z,5644
2018-10-17T11:18:17.261Z,5612
2018-10-17T11:19:17.499Z,5628
2018-10-17T11:20:17.017Z,5612
2018-10-17T11:21:17.347Z,5580
2018-10-17T11:22:17.538Z,5556
2018-10-17T11:23:18.131Z,5532
2018-10-17T11:24:17.275Z,5564
2018-10-17T11:25:17.538Z,5564
2018-10-17T11:26:17.276Z,5552
2018-10-17T11:27:18.231Z,5528
2018-10-17T11:28:17.278Z,5516
2018-10-17T11:29:17.388Z,5512
2018-10-17T11:30:17.655Z,5492
2018-10-17T11:31:17.070Z,5468
2018-10-17T11:32:17.286Z,5464
2018-10-17T11:33:18.157Z,5460
2018-10-17T11:34:17.071Z,5444
2018-10-17T11:35:17.783Z,5416
2018-10-17T11:36:17.047Z,5392
2018-10-17T11:37:17.664Z,5292
2018-10-17T11:38:17.292Z,5356
2018-10-17T11:39:18.071Z,5312
2018-10-17T11:40:17.692Z,5376
2018-10-17T11:41:17.785Z,5360
2018-10-17T11:42:17.042Z,5364
2018-10-17T11:43:17.303Z,5384
2018-10-17T11:44:17.314Z,5388
2018-10-17T11:45:18.156Z,5364
2018-10-17T11:46:16.796Z,5268
2018-10-17T11:47:17.647Z,5284
2018-10-17T11:48:17.053Z,5216
2018-10-17T11:49:17.575Z,5248
2018-10-17T11:50:17.078Z,5284
2018-10-17T11:51:18.150Z,5272
2018-10-17T11:52:17.327Z,5260
2018-10-17T11:53:18.066Z,5188
2018-10-17T11:54:17.063Z,4976
2018-10-17T11:55:17.417Z,5148
2018-10-17T11:56:17.078Z,5212
2018-10-17T11:57:17.002Z,5276
2018-10-17T11:58:18.159Z,5204
2018-10-17T11:59:18.122Z,4776
2018-10-17T12:00:17.394Z,4932
2018-10-17T12:01:17.614Z,4920
2018-10-17T12:02:17.094Z,5148
2018-10-17T12:03:17.993Z,5280
2018-10-17T12:04:18.656Z,5304
2018-10-17T12:05:18.361Z,5352
2018-10-17T12:06:17.217Z,5316
2018-10-17T12:07:17.348Z,5452
2018-10-17T12:08:17.361Z,5464
2018-10-17T12:09:18.102Z,5460
2018-10-17T12:10:17.652Z,5352
2018-10-17T12:11:17.534Z,5308
2018-10-17T12:12:17.956Z,5268
2018-10-17T12:13:17.381Z,5312
2018-10-17T12:14:17.133Z,5336
2018-10-17T12:15:17.933Z,5312
2018-10-17T12:16:17.394Z,5200
2018-10-17T12:17:17.390Z,5204
2018-10-17T12:18:17.819Z,5028
2018-10-17T12:19:17.813Z,4980
2018-10-17T12:20:17.453Z,5000
2018-10-17T12:21:18.575Z,4936
2018-10-17T12:22:17.138Z,4960
2018-10-17T12:23:17.698Z,5148
2018-10-17T12:24:17.699Z,5128
2018-10-17T12:25:17.203Z,4968
2018-10-17T12:26:17.449Z,4912
2018-10-17T12:27:17.498Z,4920
2018-10-17T12:28:17.558Z,5048
2018-10-17T12:29:17.148Z,5044
2018-10-17T12:30:17.837Z,5076
2018-10-17T12:31:17.672Z,5036
2018-10-17T12:32:17.429Z,5120
2018-10-17T12:33:17.878Z,5104
2018-10-17T12:34:17.173Z,5164
2018-10-17T12:35:17.973Z,5140
2018-10-17T12:36:17.446Z,5088
2018-10-17T12:37:17.180Z,5116
2018-10-17T12:38:17.424Z,5020
2018-10-17T12:39:18.066Z,5048
2018-10-17T12:40:18.431Z,5080
2018-10-17T12:41:18.323Z,5016
2018-10-17T12:42:17.689Z,5000
2018-10-17T12:43:17.713Z,4864
2018-10-17T12:44:17.395Z,4840
2018-10-17T12:45:17.388Z,4852
2018-10-17T12:46:17.480Z,4876
2018-10-17T12:47:17.695Z,4860
2018-10-17T12:48:17.719Z,5000
2018-10-17T12:49:17.493Z,5068
2018-10-17T12:50:17.444Z,5212
2018-10-17T12:51:17.721Z,5328
2018-10-17T12:52:18.425Z,5336
2018-10-17T12:53:17.989Z,5312
2018-10-17T12:54:17.233Z,5288
2018-10-17T12:55:17.801Z,4976
2018-10-17T12:56:17.851Z,5248
2018-10-17T12:57:17.516Z,5320
2018-10-17T12:58:17.219Z,5308
2018-10-17T12:59:18.355Z,5288
2018-10-17T13:00:17.249Z,5268
2018-10-17T13:01:17.883Z,5240
2018-10-17T13:02:17.492Z,5196
2018-10-17T13:03:17.488Z,5044
2018-10-17T13:04:17.519Z,4952
2018-10-17T13:05:17.421Z,4740
2018-10-17T13:06:16.977Z,4644
2018-10-17T13:07:17.554Z,4648
2018-10-17T13:08:17.748Z,4720
2018-10-17T13:09:17.764Z,4868
2018-10-17T13:10:17.763Z,4996
2018-10-17T13:11:17.558Z,5156
2018-10-17T13:12:17.525Z,5248
2018-10-17T13:13:18.048Z,5272
2018-10-17T13:14:17.795Z,5248
2018-10-17T13:15:17.045Z,5212
2018-10-17T13:16:17.260Z,5180
2018-10-17T13:17:18.182Z,5140
2018-10-17T13:18:17.529Z,5132
2018-10-17T13:19:17.524Z,5092
2018-10-17T13:20:17.271Z,5052
2018-10-17T13:21:17.768Z,5004
2018-10-17T13:22:18.034Z,4944
2018-10-17T13:23:17.944Z,4860
2018-10-17T13:24:17.290Z,4720
2018-10-17T13:25:17.917Z,4376
2018-10-17T13:26:17.528Z,4420
2018-10-17T13:27:17.540Z,4380
2018-10-17T13:28:17.818Z,4312
2018-10-17T13:29:18.430Z,4296
2018-10-17T13:30:17.523Z,4348
2018-10-17T13:31:17.934Z,4408
2018-10-17T13:32:17.835Z,4204
2018-10-17T13:33:17.821Z,4136
2018-10-17T13:34:18.226Z,4092
2018-10-17T13:35:18.453Z,4104
2018-10-17T13:36:17.763Z,4252
2018-10-17T13:37:17.243Z,4416
2018-10-17T13:38:17.319Z,4416
2018-10-17T13:39:17.598Z,4200
2018-10-17T13:40:17.857Z,4112
2018-10-17T13:41:18.000Z,4348
2018-10-17T13:42:18.274Z,4444
2018-10-17T13:43:18.351Z,4456
2018-10-17T13:44:17.335Z,4240
2018-10-17T13:45:17.337Z,4260
2018-10-17T13:46:17.607Z,4132
2018-10-17T13:47:18.024Z,3904
2018-10-17T13:48:17.605Z,4056
2018-10-17T13:49:18.596Z,4164
2018-10-17T13:50:17.919Z,3964
2018-10-17T13:51:17.617Z,3864
2018-10-17T13:52:17.606Z,3748